MDST/STI METAR and TAF weather

Enter ICAO airport designator
Station Type Date Time Source
MDST METAR 2020/01/18 12:00 UTC NOAA

MDST 181200Z 06004KT 040V120 6000 -RA BKN014 19/18 Q1021


Station Type Date Time Source
MDST Decoded METAR 2020/01/18 12:00 UTC NOAA

Santiago, Dominican Republic (MDST) 19-27N 070-42W
Jan 18, 2020 - 07:00 AM EST / 2020.01.18 1200 UTC
Wind: from the ENE (060 degrees) at 5 MPH (4 KT) (direction variable):0
Visibility: 3 mile(s):0
Sky conditions: mostly cloudy
Weather: light rain
Temperature: 66 F (19 C)
Dew Point: 64 F (18 C)
Relative Humidity: 93%
Pressure (altimeter): 30.15 in. Hg (1021 hPa)
ob: MDST 181200Z 06004KT 040V120 6000 -RA BKN014 19/18 Q1021
cycle: 12

Station Type Date Time Source
MDST TAF 2020/01/18 12:46 UTC NOAA

TAF MDST 181000Z 1812/1912 00000KT 9999 BKN016 PROB30 1812/1814 3000 BR BKN014
BECMG 1812/1814 13004KT

Example: see airport list